sensor_id;sensor_type;location;lat;lon;timestamp;P1;durP1;ratioP1;P2;durP2;ratioP2
10311;SDS011;5201;48.776;9.128;2023-02-28T00:00:03;2.27;;;1.80;;
10311;SDS011;5201;48.776;9.128;2023-02-28T00:02:36;3.13;;;1.70;;
10311;SDS011;5201;48.776;9.128;2023-02-28T00:05:02;1.17;;;1.13;;
10311;SDS011;5201;48.776;9.128;2023-02-28T00:07:29;1.70;;;1.60;;
10311;SDS011;5201;48.776;9.128;2023-02-28T00:10:02;1.77;;;1.50;;
10311;SDS011;5201;48.776;9.128;2023-02-28T00:12:32;2.30;;;1.37;;
10311;SDS011;5201;48.776;9.128;2023-02-28T00:14:58;2.80;;;2.07;;
10311;SDS011;5201;48.776;9.128;2023-02-28T00:17:24;1.93;;;1.70;;
10311;SDS011;5201;48.776;9.128;2023-02-28T00:19:50;1.80;;;1.70;;
10311;SDS011;5201;48.776;9.128;2023-02-28T00:22:17;2.77;;;1.30;;
10311;SDS011;5201;48.776;9.128;2023-02-28T00:24:43;1.67;;;1.43;;
10311;SDS011;5201;48.776;9.128;2023-02-28T00:27:10;1.80;;;1.70;;
10311;SDS011;5201;48.776;9.128;2023-02-28T00:29:36;1.53;;;1.43;;
10311;SDS011;5201;48.776;9.128;2023-02-28T00:32:03;2.50;;;1.63;;
10311;SDS011;5201;48.776;9.128;2023-02-28T00:34:29;1.60;;;1.50;;
10311;SDS011;5201;48.776;9.128;2023-02-28T00:36:55;3.10;;;1.80;;
10311;SDS011;5201;48.776;9.128;2023-02-28T00:39:21;1.67;;;1.50;;
10311;SDS011;5201;48.776;9.128;2023-02-28T00:41:47;1.83;;;1.50;;
10311;SDS011;5201;48.776;9.128;2023-02-28T00:44:13;1.73;;;1.30;;
10311;SDS011;5201;48.776;9.128;2023-02-28T00:46:38;2.50;;;2.00;;
10311;SDS011;5201;48.776;9.128;2023-02-28T00:49:04;2.70;;;1.60;;
10311;SDS011;5201;48.776;9.128;2023-02-28T00:51:29;4.20;;;2.30;;
10311;SDS011;5201;48.776;9.128;2023-02-28T00:53:55;1.97;;;1.80;;
10311;SDS011;5201;48.776;9.128;2023-02-28T00:56:21;1.83;;;1.73;;
10311;SDS011;5201;48.776;9.128;2023-02-28T00:58:46;2.07;;;1.53;;
10311;SDS011;5201;48.776;9.128;2023-02-28T01:01:12;4.30;;;2.00;;
10311;SDS011;5201;48.776;9.128;2023-02-28T01:03:38;4.07;;;2.10;;
10311;SDS011;5201;48.776;9.128;2023-02-28T01:06:03;2.30;;;2.10;;
10311;SDS011;5201;48.776;9.128;2023-02-28T01:08:29;8.13;;;2.10;;
10311;SDS011;5201;48.776;9.128;2023-02-28T01:10:55;2.07;;;1.87;;
10311;SDS011;5201;48.776;9.128;2023-02-28T01:13:21;4.53;;;2.17;;
10311;SDS011;5201;48.776;9.128;2023-02-28T01:15:51;2.17;;;1.70;;
10311;SDS011;5201;48.776;9.128;2023-02-28T01:18:20;3.90;;;1.97;;
10311;SDS011;5201;48.776;9.128;2023-02-28T01:20:46;3.67;;;1.80;;
10311;SDS011;5201;48.776;9.128;2023-02-28T01:23:12;3.30;;;1.63;;
10311;SDS011;5201;48.776;9.128;2023-02-28T01:25:38;2.00;;;1.80;;
10311;SDS011;5201;48.776;9.128;2023-02-28T01:28:04;2.17;;;2.00;;
10311;SDS011;5201;48.776;9.128;2023-02-28T01:30:30;2.63;;;2.07;;
10311;SDS011;5201;48.776;9.128;2023-02-28T01:32:56;1.90;;;1.70;;
10311;SDS011;5201;48.776;9.128;2023-02-28T01:35:22;2.80;;;1.87;;
10311;SDS011;5201;48.776;9.128;2023-02-28T01:37:48;3.63;;;2.13;;
10311;SDS011;5201;48.776;9.128;2023-02-28T01:40:13;2.90;;;2.33;;
10311;SDS011;5201;48.776;9.128;2023-02-28T01:42:39;2.27;;;1.90;;
10311;SDS011;5201;48.776;9.128;2023-02-28T01:47:45;3.40;;;2.00;;
10311;SDS011;5201;48.776;9.128;2023-02-28T01:50:16;4.03;;;2.07;;
10311;SDS011;5201;48.776;9.128;2023-02-28T01:52:45;4.10;;;1.87;;
10311;SDS011;5201;48.776;9.128;2023-02-28T01:55:13;3.33;;;2.67;;
10311;SDS011;5201;48.776;9.128;2023-02-28T01:57:43;2.57;;;2.10;;
10311;SDS011;5201;48.776;9.128;2023-02-28T02:00:14;3.53;;;2.23;;
10311;SDS011;5201;48.776;9.128;2023-02-28T02:02:42;2.07;;;1.87;;
10311;SDS011;5201;48.776;9.128;2023-02-28T02:05:18;1.77;;;1.60;;
10311;SDS011;5201;48.776;9.128;2023-02-28T02:07:51;3.77;;;2.10;;
10311;SDS011;5201;48.776;9.128;2023-02-28T02:18:57;4.70;;;2.93;;
10311;SDS011;5201;48.776;9.128;2023-02-28T02:41:34;6.73;;;2.53;;
10311;SDS011;5201;48.776;9.128;2023-02-28T02:46:47;2.97;;;2.27;;
10311;SDS011;5201;48.776;9.128;2023-02-28T02:49:18;2.23;;;2.03;;
10311;SDS011;5201;48.776;9.128;2023-02-28T02:51:49;2.40;;;2.30;;
10311;SDS011;5201;48.776;9.128;2023-02-28T02:56:48;2.80;;;2.43;;
10311;SDS011;5201;48.776;9.128;2023-02-28T02:59:16;6.63;;;2.67;;
10311;SDS011;5201;48.776;9.128;2023-02-28T03:01:46;3.23;;;2.60;;
10311;SDS011;5201;48.776;9.128;2023-02-28T03:04:17;2.87;;;2.60;;
10311;SDS011;5201;48.776;9.128;2023-02-28T03:06:46;5.43;;;2.57;;
10311;SDS011;5201;48.776;9.128;2023-02-28T03:09:12;4.97;;;3.20;;
10311;SDS011;5201;48.776;9.128;2023-02-28T03:11:37;6.13;;;3.30;;
10311;SDS011;5201;48.776;9.128;2023-02-28T03:14:17;3.10;;;2.57;;
10311;SDS011;5201;48.776;9.128;2023-02-28T03:17:23;4.27;;;2.50;;
10311;SDS011;5201;48.776;9.128;2023-02-28T03:20:15;3.27;;;2.97;;
10311;SDS011;5201;48.776;9.128;2023-02-28T03:23:01;2.60;;;2.40;;
10311;SDS011;5201;48.776;9.128;2023-02-28T03:25:54;3.47;;;2.90;;
10311;SDS011;5201;48.776;9.128;2023-02-28T03:28:27;6.43;;;2.93;;
10311;SDS011;5201;48.776;9.128;2023-02-28T03:31:19;2.07;;;1.90;;
10311;SDS011;5201;48.776;9.128;2023-02-28T03:33:52;3.23;;;2.67;;
10311;SDS011;5201;48.776;9.128;2023-02-28T03:36:27;3.20;;;2.50;;
10311;SDS011;5201;48.776;9.128;2023-02-28T03:38:58;2.50;;;2.30;;
10311;SDS011;5201;48.776;9.128;2023-02-28T03:41:38;3.50;;;2.60;;
10311;SDS011;5201;48.776;9.128;2023-02-28T03:44:14;5.47;;;3.03;;
10311;SDS011;5201;48.776;9.128;2023-02-28T03:46:46;5.17;;;3.23;;
10311;SDS011;5201;48.776;9.128;2023-02-28T03:49:40;4.47;;;3.17;;
10311;SDS011;5201;48.776;9.128;2023-02-28T03:52:17;8.57;;;4.07;;
10311;SDS011;5201;48.776;9.128;2023-02-28T03:54:47;5.47;;;3.00;;
10311;SDS011;5201;48.776;9.128;2023-02-28T03:59:54;3.50;;;3.20;;
10311;SDS011;5201;48.776;9.128;2023-02-28T04:02:27;4.10;;;3.17;;
10311;SDS011;5201;48.776;9.128;2023-02-28T04:04:52;3.63;;;2.83;;
10311;SDS011;5201;48.776;9.128;2023-02-28T04:07:19;5.03;;;2.17;;
10311;SDS011;5201;48.776;9.128;2023-02-28T04:09:44;9.97;;;3.10;;
10311;SDS011;5201;48.776;9.128;2023-02-28T04:12:10;4.37;;;3.30;;
10311;SDS011;5201;48.776;9.128;2023-02-28T04:14:36;4.10;;;3.43;;
10311;SDS011;5201;48.776;9.128;2023-02-28T04:17:01;5.43;;;3.03;;
10311;SDS011;5201;48.776;9.128;2023-02-28T04:19:27;3.50;;;3.20;;
10311;SDS011;5201;48.776;9.128;2023-02-28T04:21:53;2.87;;;2.47;;
10311;SDS011;5201;48.776;9.128;2023-02-28T04:24:23;6.43;;;2.97;;
10311;SDS011;5201;48.776;9.128;2023-02-28T04:26:51;5.10;;;3.30;;
10311;SDS011;5201;48.776;9.128;2023-02-28T04:29:23;5.90;;;3.23;;
10311;SDS011;5201;48.776;9.128;2023-02-28T04:31:50;3.00;;;2.80;;
10311;SDS011;5201;48.776;9.128;2023-02-28T04:34:18;6.70;;;3.63;;
10311;SDS011;5201;48.776;9.128;2023-02-28T04:36:44;2.97;;;2.77;;
10311;SDS011;5201;48.776;9.128;2023-02-28T04:39:11;7.03;;;2.77;;
10311;SDS011;5201;48.776;9.128;2023-02-28T04:41:37;3.17;;;2.70;;
10311;SDS011;5201;48.776;9.128;2023-02-28T04:44:02;4.53;;;2.80;;
10311;SDS011;5201;48.776;9.128;2023-02-28T04:46:28;5.70;;;3.10;;
10311;SDS011;5201;48.776;9.128;2023-02-28T04:48:55;13.07;;;3.10;;
10311;SDS011;5201;48.776;9.128;2023-02-28T04:51:21;2.97;;;2.27;;
10311;SDS011;5201;48.776;9.128;2023-02-28T04:53:47;4.93;;;3.03;;
10311;SDS011;5201;48.776;9.128;2023-02-28T04:56:14;3.60;;;3.03;;
10311;SDS011;5201;48.776;9.128;2023-02-28T04:58:41;5.53;;;3.40;;
10311;SDS011;5201;48.776;9.128;2023-02-28T05:01:21;4.10;;;2.73;;
10311;SDS011;5201;48.776;9.128;2023-02-28T05:03:53;4.70;;;3.47;;
10311;SDS011;5201;48.776;9.128;2023-02-28T05:06:20;4.20;;;3.20;;
10311;SDS011;5201;48.776;9.128;2023-02-28T05:08:48;3.63;;;2.20;;
10311;SDS011;5201;48.776;9.128;2023-02-28T05:11:33;4.37;;;2.40;;
10311;SDS011;5201;48.776;9.128;2023-02-28T05:14:00;3.97;;;3.40;;
10311;SDS011;5201;48.776;9.128;2023-02-28T05:16:31;3.30;;;3.00;;
10311;SDS011;5201;48.776;9.128;2023-02-28T05:18:57;2.93;;;2.70;;
10311;SDS011;5201;48.776;9.128;2023-02-28T05:21:24;12.73;;;3.40;;
10311;SDS011;5201;48.776;9.128;2023-02-28T05:24:04;3.20;;;2.90;;
10311;SDS011;5201;48.776;9.128;2023-02-28T05:26:36;4.40;;;3.77;;
10311;SDS011;5201;48.776;9.128;2023-02-28T05:29:03;3.37;;;3.07;;
10311;SDS011;5201;48.776;9.128;2023-02-28T05:31:30;4.57;;;2.87;;
10311;SDS011;5201;48.776;9.128;2023-02-28T05:33:56;4.17;;;3.77;;
10311;SDS011;5201;48.776;9.128;2023-02-28T05:36:22;6.37;;;3.67;;
10311;SDS011;5201;48.776;9.128;2023-02-28T05:38:49;4.57;;;3.17;;
10311;SDS011;5201;48.776;9.128;2023-02-28T05:41:16;4.30;;;3.90;;
10311;SDS011;5201;48.776;9.128;2023-02-28T05:43:42;3.70;;;3.23;;
10311;SDS011;5201;48.776;9.128;2023-02-28T05:46:09;2.97;;;2.77;;
10311;SDS011;5201;48.776;9.128;2023-02-28T05:48:36;4.67;;;3.77;;
10311;SDS011;5201;48.776;9.128;2023-02-28T05:51:03;6.97;;;3.33;;
10311;SDS011;5201;48.776;9.128;2023-02-28T05:53:30;7.23;;;4.30;;
10311;SDS011;5201;48.776;9.128;2023-02-28T05:55:55;4.37;;;3.97;;
10311;SDS011;5201;48.776;9.128;2023-02-28T05:58:21;5.20;;;3.93;;
10311;SDS011;5201;48.776;9.128;2023-02-28T06:00:47;5.27;;;3.70;;
10311;SDS011;5201;48.776;9.128;2023-02-28T06:03:14;5.17;;;3.77;;
10311;SDS011;5201;48.776;9.128;2023-02-28T06:05:39;4.43;;;3.47;;
10311;SDS011;5201;48.776;9.128;2023-02-28T06:08:05;5.43;;;4.30;;
10311;SDS011;5201;48.776;9.128;2023-02-28T06:10:32;6.10;;;3.90;;
10311;SDS011;5201;48.776;9.128;2023-02-28T06:13:01;7.87;;;4.03;;
10311;SDS011;5201;48.776;9.128;2023-02-28T06:15:30;7.27;;;4.40;;
10311;SDS011;5201;48.776;9.128;2023-02-28T06:17:56;5.83;;;4.27;;
10311;SDS011;5201;48.776;9.128;2023-02-28T06:20:23;4.90;;;3.77;;
10311;SDS011;5201;48.776;9.128;2023-02-28T06:22:50;5.40;;;3.77;;
10311;SDS011;5201;48.776;9.128;2023-02-28T06:25:16;5.70;;;4.23;;
10311;SDS011;5201;48.776;9.128;2023-02-28T06:27:42;8.27;;;3.77;;
10311;SDS011;5201;48.776;9.128;2023-02-28T06:30:09;5.53;;;4.07;;
10311;SDS011;5201;48.776;9.128;2023-02-28T06:32:35;6.50;;;3.97;;
10311;SDS011;5201;48.776;9.128;2023-02-28T06:35:01;4.80;;;3.80;;
10311;SDS011;5201;48.776;9.128;2023-02-28T06:37:27;5.53;;;4.00;;
10311;SDS011;5201;48.776;9.128;2023-02-28T06:39:53;4.90;;;3.80;;
10311;SDS011;5201;48.776;9.128;2023-02-28T06:42:21;6.27;;;3.60;;
10311;SDS011;5201;48.776;9.128;2023-02-28T06:44:49;8.60;;;4.47;;
10311;SDS011;5201;48.776;9.128;2023-02-28T06:47:15;5.23;;;4.00;;
10311;SDS011;5201;48.776;9.128;2023-02-28T06:49:41;5.13;;;4.13;;
10311;SDS011;5201;48.776;9.128;2023-02-28T06:52:07;6.27;;;3.63;;
10311;SDS011;5201;48.776;9.128;2023-02-28T06:54:33;5.73;;;4.30;;
10311;SDS011;5201;48.776;9.128;2023-02-28T06:56:59;6.30;;;4.20;;
10311;SDS011;5201;48.776;9.128;2023-02-28T06:59:24;5.93;;;3.40;;
10311;SDS011;5201;48.776;9.128;2023-02-28T07:01:50;5.43;;;3.80;;
10311;SDS011;5201;48.776;9.128;2023-02-28T07:04:16;12.07;;;4.30;;
10311;SDS011;5201;48.776;9.128;2023-02-28T07:06:41;7.37;;;4.07;;
10311;SDS011;5201;48.776;9.128;2023-02-28T07:09:07;5.97;;;3.77;;
10311;SDS011;5201;48.776;9.128;2023-02-28T07:11:33;5.60;;;4.40;;
10311;SDS011;5201;48.776;9.128;2023-02-28T07:13:59;5.33;;;4.20;;
10311;SDS011;5201;48.776;9.128;2023-02-28T07:16:24;6.30;;;4.10;;
10311;SDS011;5201;48.776;9.128;2023-02-28T07:18:53;7.57;;;3.90;;
10311;SDS011;5201;48.776;9.128;2023-02-28T07:21:20;5.77;;;3.83;;
10311;SDS011;5201;48.776;9.128;2023-02-28T07:23:46;4.27;;;3.73;;
10311;SDS011;5201;48.776;9.128;2023-02-28T07:26:13;5.43;;;4.47;;
10311;SDS011;5201;48.776;9.128;2023-02-28T07:28:40;5.73;;;4.20;;
10311;SDS011;5201;48.776;9.128;2023-02-28T07:31:07;8.83;;;4.67;;
10311;SDS011;5201;48.776;9.128;2023-02-28T07:33:34;7.63;;;4.57;;
10311;SDS011;5201;48.776;9.128;2023-02-28T07:36:03;5.97;;;2.97;;
10311;SDS011;5201;48.776;9.128;2023-02-28T07:38:33;4.67;;;4.20;;
10311;SDS011;5201;48.776;9.128;2023-02-28T07:41:00;5.07;;;4.13;;
10311;SDS011;5201;48.776;9.128;2023-02-28T07:43:29;5.83;;;4.40;;
10311;SDS011;5201;48.776;9.128;2023-02-28T07:45:55;5.20;;;4.27;;
10311;SDS011;5201;48.776;9.128;2023-02-28T07:48:21;7.07;;;4.60;;
10311;SDS011;5201;48.776;9.128;2023-02-28T07:50:53;5.47;;;3.67;;
10311;SDS011;5201;48.776;9.128;2023-02-28T07:53:23;5.87;;;4.30;;
10311;SDS011;5201;48.776;9.128;2023-02-28T07:55:48;6.23;;;4.57;;
10311;SDS011;5201;48.776;9.128;2023-02-28T07:58:14;4.23;;;3.60;;
10311;SDS011;5201;48.776;9.128;2023-02-28T08:00:40;9.90;;;4.60;;
10311;SDS011;5201;48.776;9.128;2023-02-28T08:03:06;8.00;;;4.47;;
10311;SDS011;5201;48.776;9.128;2023-02-28T08:05:37;6.10;;;4.80;;
10311;SDS011;5201;48.776;9.128;2023-02-28T08:08:06;6.43;;;4.27;;
10311;SDS011;5201;48.776;9.128;2023-02-28T08:10:32;3.80;;;3.23;;
10311;SDS011;5201;48.776;9.128;2023-02-28T08:12:58;6.73;;;4.70;;
10311;SDS011;5201;48.776;9.128;2023-02-28T08:15:23;6.57;;;4.27;;
10311;SDS011;5201;48.776;9.128;2023-02-28T08:17:49;6.17;;;4.70;;
10311;SDS011;5201;48.776;9.128;2023-02-28T08:20:15;6.80;;;4.57;;
10311;SDS011;5201;48.776;9.128;2023-02-28T08:22:40;6.40;;;4.20;;
10311;SDS011;5201;48.776;9.128;2023-02-28T08:25:07;5.40;;;4.80;;
10311;SDS011;5201;48.776;9.128;2023-02-28T08:27:33;5.60;;;4.70;;
10311;SDS011;5201;48.776;9.128;2023-02-28T08:29:58;8.30;;;4.73;;
10311;SDS011;5201;48.776;9.128;2023-02-28T08:32:24;8.10;;;4.90;;
10311;SDS011;5201;48.776;9.128;2023-02-28T08:34:50;6.47;;;5.23;;
10311;SDS011;5201;48.776;9.128;2023-02-28T08:37:16;8.90;;;4.90;;
10311;SDS011;5201;48.776;9.128;2023-02-28T08:39:41;5.70;;;5.03;;
10311;SDS011;5201;48.776;9.128;2023-02-28T08:42:07;5.43;;;4.93;;
10311;SDS011;5201;48.776;9.128;2023-02-28T08:44:33;6.87;;;4.30;;
10311;SDS011;5201;48.776;9.128;2023-02-28T08:46:58;8.43;;;5.13;;
10311;SDS011;5201;48.776;9.128;2023-02-28T08:49:24;8.30;;;4.67;;
10311;SDS011;5201;48.776;9.128;2023-02-28T08:51:50;8.93;;;5.50;;
10311;SDS011;5201;48.776;9.128;2023-02-28T08:54:15;8.17;;;5.60;;
10311;SDS011;5201;48.776;9.128;2023-02-28T08:56:44;8.23;;;5.63;;
10311;SDS011;5201;48.776;9.128;2023-02-28T08:59:11;3.97;;;3.23;;
10311;SDS011;5201;48.776;9.128;2023-02-28T09:01:37;8.37;;;5.10;;
10311;SDS011;5201;48.776;9.128;2023-02-28T09:04:03;9.30;;;6.37;;
10311;SDS011;5201;48.776;9.128;2023-02-28T09:06:29;9.60;;;5.13;;
10311;SDS011;5201;48.776;9.128;2023-02-28T09:08:58;8.60;;;5.77;;
10311;SDS011;5201;48.776;9.128;2023-02-28T09:11:25;7.23;;;5.50;;
10311;SDS011;5201;48.776;9.128;2023-02-28T09:13:53;6.93;;;4.67;;
10311;SDS011;5201;48.776;9.128;2023-02-28T09:16:20;10.53;;;6.17;;
10311;SDS011;5201;48.776;9.128;2023-02-28T09:18:47;5.87;;;3.57;;
10311;SDS011;5201;48.776;9.128;2023-02-28T09:21:14;8.73;;;5.77;;
10311;SDS011;5201;48.776;9.128;2023-02-28T09:23:45;10.73;;;6.47;;
10311;SDS011;5201;48.776;9.128;2023-02-28T09:26:13;14.97;;;5.93;;
10311;SDS011;5201;48.776;9.128;2023-02-28T09:28:41;9.73;;;5.93;;
10311;SDS011;5201;48.776;9.128;2023-02-28T09:31:10;10.10;;;5.90;;
10311;SDS011;5201;48.776;9.128;2023-02-28T09:33:38;12.47;;;6.57;;
10311;SDS011;5201;48.776;9.128;2023-02-28T09:36:04;9.07;;;6.00;;
10311;SDS011;5201;48.776;9.128;2023-02-28T09:38:31;6.40;;;5.23;;
10311;SDS011;5201;48.776;9.128;2023-02-28T09:40:58;10.53;;;6.73;;
10311;SDS011;5201;48.776;9.128;2023-02-28T09:43:26;8.73;;;5.73;;
10311;SDS011;5201;48.776;9.128;2023-02-28T09:48:33;9.43;;;5.30;;
10311;SDS011;5201;48.776;9.128;2023-02-28T09:51:05;9.43;;;6.00;;
10311;SDS011;5201;48.776;9.128;2023-02-28T09:53:47;5.67;;;4.63;;
10311;SDS011;5201;48.776;9.128;2023-02-28T09:56:24;13.03;;;6.57;;
10311;SDS011;5201;48.776;9.128;2023-02-28T09:58:59;7.40;;;5.37;;
10311;SDS011;5201;48.776;9.128;2023-02-28T10:04:36;7.33;;;5.47;;
10311;SDS011;5201;48.776;9.128;2023-02-28T10:10:52;6.77;;;5.17;;
10311;SDS011;5201;48.776;9.128;2023-02-28T10:13:24;9.00;;;5.80;;
10311;SDS011;5201;48.776;9.128;2023-02-28T10:16:02;11.03;;;5.83;;
10311;SDS011;5201;48.776;9.128;2023-02-28T10:18:41;9.60;;;5.63;;
10311;SDS011;5201;48.776;9.128;2023-02-28T10:21:17;6.13;;;5.13;;
10311;SDS011;5201;48.776;9.128;2023-02-28T10:23:47;7.40;;;5.50;;
10311;SDS011;5201;48.776;9.128;2023-02-28T10:26:16;6.70;;;4.60;;
10311;SDS011;5201;48.776;9.128;2023-02-28T10:28:43;7.77;;;5.57;;
10311;SDS011;5201;48.776;9.128;2023-02-28T10:31:11;8.60;;;5.50;;
10311;SDS011;5201;48.776;9.128;2023-02-28T10:33:41;10.13;;;5.60;;
10311;SDS011;5201;48.776;9.128;2023-02-28T10:36:08;10.93;;;7.10;;
10311;SDS011;5201;48.776;9.128;2023-02-28T10:38:41;7.40;;;5.47;;
10311;SDS011;5201;48.776;9.128;2023-02-28T10:41:08;7.93;;;5.23;;
10311;SDS011;5201;48.776;9.128;2023-02-28T10:43:36;9.83;;;6.23;;
10311;SDS011;5201;48.776;9.128;2023-02-28T10:50:59;10.33;;;6.50;;
10311;SDS011;5201;48.776;9.128;2023-02-28T10:53:37;8.63;;;5.90;;
10311;SDS011;5201;48.776;9.128;2023-02-28T10:56:15;7.73;;;5.50;;
10311;SDS011;5201;48.776;9.128;2023-02-28T11:01:41;7.10;;;5.47;;
10311;SDS011;5201;48.776;9.128;2023-02-28T11:06:53;8.77;;;5.80;;
10311;SDS011;5201;48.776;9.128;2023-02-28T11:12:00;7.20;;;5.73;;
10311;SDS011;5201;48.776;9.128;2023-02-28T11:14:27;7.90;;;5.67;;
10311;SDS011;5201;48.776;9.128;2023-02-28T11:16:57;9.07;;;5.33;;
10311;SDS011;5201;48.776;9.128;2023-02-28T11:19:28;8.53;;;5.50;;
10311;SDS011;5201;48.776;9.128;2023-02-28T11:22:02;6.90;;;5.63;;
10311;SDS011;5201;48.776;9.128;2023-02-28T11:24:30;6.80;;;5.20;;
10311;SDS011;5201;48.776;9.128;2023-02-28T11:27:00;9.37;;;5.53;;
10311;SDS011;5201;48.776;9.128;2023-02-28T11:29:27;6.70;;;4.40;;
10311;SDS011;5201;48.776;9.128;2023-02-28T11:34:34;5.30;;;4.60;;
10311;SDS011;5201;48.776;9.128;2023-02-28T11:37:01;8.20;;;5.13;;
10311;SDS011;5201;48.776;9.128;2023-02-28T11:39:31;7.37;;;5.20;;
10311;SDS011;5201;48.776;9.128;2023-02-28T11:54:00;9.27;;;5.10;;
10311;SDS011;5201;48.776;9.128;2023-02-28T11:56:02;8.93;;;4.70;;
10311;SDS011;5201;48.776;9.128;2023-02-28T12:06:28;8.10;;;5.07;;
10311;SDS011;5201;48.776;9.128;2023-02-28T12:09:00;8.20;;;5.10;;
10311;SDS011;5201;48.776;9.128;2023-02-28T12:11:56;6.73;;;5.53;;
10311;SDS011;5201;48.776;9.128;2023-02-28T12:20:37;7.70;;;5.07;;
10311;SDS011;5201;48.776;9.128;2023-02-28T12:28:52;8.57;;;5.80;;
10311;SDS011;5201;48.776;9.128;2023-02-28T12:31:24;9.43;;;5.20;;
10311;SDS011;5201;48.776;9.128;2023-02-28T12:33:56;6.57;;;5.00;;
10311;SDS011;5201;48.776;9.128;2023-02-28T12:36:27;5.90;;;4.97;;
10311;SDS011;5201;48.776;9.128;2023-02-28T12:38:59;7.37;;;5.70;;
10311;SDS011;5201;48.776;9.128;2023-02-28T12:44:25;7.93;;;5.27;;
10311;SDS011;5201;48.776;9.128;2023-02-28T12:47:01;6.83;;;4.90;;
10311;SDS011;5201;48.776;9.128;2023-02-28T12:49:41;6.50;;;4.77;;
10311;SDS011;5201;48.776;9.128;2023-02-28T12:52:08;7.17;;;5.47;;
10311;SDS011;5201;48.776;9.128;2023-02-28T12:54:44;8.23;;;5.23;;
10311;SDS011;5201;48.776;9.128;2023-02-28T12:57:22;9.97;;;5.20;;
10311;SDS011;5201;48.776;9.128;2023-02-28T12:59:57;9.47;;;5.87;;
10311;SDS011;5201;48.776;9.128;2023-02-28T13:11:07;8.47;;;5.40;;
10311;SDS011;5201;48.776;9.128;2023-02-28T13:13:49;6.33;;;5.13;;
10311;SDS011;5201;48.776;9.128;2023-02-28T13:16:23;9.17;;;5.57;;
10311;SDS011;5201;48.776;9.128;2023-02-28T13:18:49;8.17;;;5.77;;
10311;SDS011;5201;48.776;9.128;2023-02-28T13:21:24;7.10;;;4.63;;
10311;SDS011;5201;48.776;9.128;2023-02-28T13:31:23;6.30;;;4.40;;
10311;SDS011;5201;48.776;9.128;2023-02-28T13:36:30;6.70;;;4.40;;
10311;SDS011;5201;48.776;9.128;2023-02-28T13:38:58;6.90;;;4.67;;
10311;SDS011;5201;48.776;9.128;2023-02-28T13:54:52;7.47;;;5.20;;
10311;SDS011;5201;48.776;9.128;2023-02-28T14:00:30;5.97;;;5.03;;
10311;SDS011;5201;48.776;9.128;2023-02-28T14:03:04;6.73;;;5.13;;
10311;SDS011;5201;48.776;9.128;2023-02-28T14:05:47;7.27;;;5.73;;
10311;SDS011;5201;48.776;9.128;2023-02-28T14:08:35;7.30;;;5.30;;
10311;SDS011;5201;48.776;9.128;2023-02-28T14:11:06;8.03;;;4.87;;
10311;SDS011;5201;48.776;9.128;2023-02-28T14:13:48;7.27;;;5.03;;
10311;SDS011;5201;48.776;9.128;2023-02-28T14:16:14;6.70;;;4.90;;
10311;SDS011;5201;48.776;9.128;2023-02-28T14:19:02;5.70;;;5.03;;
10311;SDS011;5201;48.776;9.128;2023-02-28T14:21:47;9.43;;;5.83;;
10311;SDS011;5201;48.776;9.128;2023-02-28T14:24:47;5.97;;;4.90;;
10311;SDS011;5201;48.776;9.128;2023-02-28T14:27:39;5.53;;;4.93;;
10311;SDS011;5201;48.776;9.128;2023-02-28T14:38:52;6.77;;;4.97;;
10311;SDS011;5201;48.776;9.128;2023-02-28T14:41:27;7.83;;;4.97;;
10311;SDS011;5201;48.776;9.128;2023-02-28T14:43:56;6.90;;;4.87;;
10311;SDS011;5201;48.776;9.128;2023-02-28T14:46:32;8.77;;;5.03;;
10311;SDS011;5201;48.776;9.128;2023-02-28T14:49:03;6.70;;;5.03;;
10311;SDS011;5201;48.776;9.128;2023-02-28T14:51:30;6.93;;;4.97;;
10311;SDS011;5201;48.776;9.128;2023-02-28T14:53:57;9.07;;;5.30;;
10311;SDS011;5201;48.776;9.128;2023-02-28T14:56:35;7.27;;;5.47;;
10311;SDS011;5201;48.776;9.128;2023-02-28T14:59:02;7.77;;;4.60;;
10311;SDS011;5201;48.776;9.128;2023-02-28T15:01:30;8.47;;;5.27;;
10311;SDS011;5201;48.776;9.128;2023-02-28T15:04:03;5.30;;;4.37;;
10311;SDS011;5201;48.776;9.128;2023-02-28T15:06:31;5.37;;;4.70;;
10311;SDS011;5201;48.776;9.128;2023-02-28T15:09:08;12.10;;;5.90;;
10311;SDS011;5201;48.776;9.128;2023-02-28T15:11:35;8.37;;;5.57;;
10311;SDS011;5201;48.776;9.128;2023-02-28T15:14:01;7.33;;;5.30;;
10311;SDS011;5201;48.776;9.128;2023-02-28T15:16:29;10.53;;;5.20;;
10311;SDS011;5201;48.776;9.128;2023-02-28T15:19:00;7.40;;;4.90;;
10311;SDS011;5201;48.776;9.128;2023-02-28T15:21:30;10.07;;;4.60;;
10311;SDS011;5201;48.776;9.128;2023-02-28T15:24:04;5.67;;;4.40;;
10311;SDS011;5201;48.776;9.128;2023-02-28T15:26:33;11.27;;;5.30;;
10311;SDS011;5201;48.776;9.128;2023-02-28T15:29:07;8.67;;;4.80;;
10311;SDS011;5201;48.776;9.128;2023-02-28T15:31:46;7.67;;;5.30;;
10311;SDS011;5201;48.776;9.128;2023-02-28T15:34:21;8.40;;;5.93;;
10311;SDS011;5201;48.776;9.128;2023-02-28T15:36:52;10.47;;;5.73;;
10311;SDS011;5201;48.776;9.128;2023-02-28T15:39:20;9.17;;;6.23;;
10311;SDS011;5201;48.776;9.128;2023-02-28T15:41:47;6.93;;;5.10;;
10311;SDS011;5201;48.776;9.128;2023-02-28T15:46:59;8.40;;;6.20;;
10311;SDS011;5201;48.776;9.128;2023-02-28T15:49:32;6.63;;;5.47;;
10311;SDS011;5201;48.776;9.128;2023-02-28T15:52:12;8.07;;;5.60;;
10311;SDS011;5201;48.776;9.128;2023-02-28T15:54:40;8.67;;;5.60;;
10311;SDS011;5201;48.776;9.128;2023-02-28T15:57:10;5.60;;;4.73;;
10311;SDS011;5201;48.776;9.128;2023-02-28T15:59:41;6.27;;;4.47;;
10311;SDS011;5201;48.776;9.128;2023-02-28T16:02:21;9.87;;;5.83;;
10311;SDS011;5201;48.776;9.128;2023-02-28T16:04:55;7.77;;;5.43;;
10311;SDS011;5201;48.776;9.128;2023-02-28T16:07:27;7.63;;;5.13;;
10311;SDS011;5201;48.776;9.128;2023-02-28T16:09:54;7.93;;;5.93;;
10311;SDS011;5201;48.776;9.128;2023-02-28T16:12:20;9.33;;;5.30;;
10311;SDS011;5201;48.776;9.128;2023-02-28T16:14:50;7.97;;;5.83;;
10311;SDS011;5201;48.776;9.128;2023-02-28T16:17:24;9.47;;;6.07;;
10311;SDS011;5201;48.776;9.128;2023-02-28T16:19:52;10.53;;;5.30;;
10311;SDS011;5201;48.776;9.128;2023-02-28T16:22:18;7.33;;;5.67;;
10311;SDS011;5201;48.776;9.128;2023-02-28T16:24:44;8.40;;;5.50;;
10311;SDS011;5201;48.776;9.128;2023-02-28T16:27:43;8.47;;;5.90;;
10311;SDS011;5201;48.776;9.128;2023-02-28T16:30:02;6.90;;;5.00;;
10311;SDS011;5201;48.776;9.128;2023-02-28T16:32:30;8.27;;;5.83;;
10311;SDS011;5201;48.776;9.128;2023-02-28T16:34:59;10.00;;;6.33;;
10311;SDS011;5201;48.776;9.128;2023-02-28T16:37:26;7.80;;;6.03;;
10311;SDS011;5201;48.776;9.128;2023-02-28T16:39:52;6.17;;;4.47;;
10311;SDS011;5201;48.776;9.128;2023-02-28T16:42:25;19.00;;;6.80;;
10311;SDS011;5201;48.776;9.128;2023-02-28T16:44:53;8.50;;;6.00;;
10311;SDS011;5201;48.776;9.128;2023-02-28T16:47:20;9.00;;;6.03;;
10311;SDS011;5201;48.776;9.128;2023-02-28T16:49:46;7.43;;;5.20;;
10311;SDS011;5201;48.776;9.128;2023-02-28T16:52:12;10.13;;;6.13;;
10311;SDS011;5201;48.776;9.128;2023-02-28T16:54:38;6.27;;;4.83;;
10311;SDS011;5201;48.776;9.128;2023-02-28T16:57:05;6.90;;;5.70;;
10311;SDS011;5201;48.776;9.128;2023-02-28T16:59:38;9.60;;;5.77;;
10311;SDS011;5201;48.776;9.128;2023-02-28T17:02:08;10.00;;;5.50;;
10311;SDS011;5201;48.776;9.128;2023-02-28T17:04:39;7.73;;;5.27;;
10311;SDS011;5201;48.776;9.128;2023-02-28T17:07:04;9.37;;;6.27;;
10311;SDS011;5201;48.776;9.128;2023-02-28T17:09:33;7.90;;;5.80;;
10311;SDS011;5201;48.776;9.128;2023-02-28T17:11:58;8.20;;;5.63;;
10311;SDS011;5201;48.776;9.128;2023-02-28T17:14:24;7.27;;;5.30;;
10311;SDS011;5201;48.776;9.128;2023-02-28T17:16:49;8.60;;;5.50;;
10311;SDS011;5201;48.776;9.128;2023-02-28T17:19:16;7.43;;;5.07;;
10311;SDS011;5201;48.776;9.128;2023-02-28T17:21:42;15.30;;;5.87;;
10311;SDS011;5201;48.776;9.128;2023-02-28T17:24:08;7.87;;;5.37;;
10311;SDS011;5201;48.776;9.128;2023-02-28T17:26:36;10.20;;;5.47;;
10311;SDS011;5201;48.776;9.128;2023-02-28T17:29:05;10.97;;;6.53;;
10311;SDS011;5201;48.776;9.128;2023-02-28T17:31:37;9.87;;;6.30;;
10311;SDS011;5201;48.776;9.128;2023-02-28T17:34:04;13.70;;;7.77;;
10311;SDS011;5201;48.776;9.128;2023-02-28T17:36:29;20.80;;;7.00;;
10311;SDS011;5201;48.776;9.128;2023-02-28T17:38:58;9.50;;;6.17;;